WEATHER DATA

YESTERDAY
Time Temp. Dewp. Hum. Wind dir Wind speed Wind gust Bar. 1h Prec. 24h Prec.
00:05 15.6 10.2 70 0 0.3 1021.9 0.0000 0.0000
00:16 15.6 10.2 70 270 0.3 0.6 1022 0.0000 0.0000
00:26 15.5 10.3 71 0 0.6 1022.2 0.0000 0.0000
00:36 15.5 10.5 72 239 0.3 0.6 1022.2 0.0000 0.0000
00:46 15.4 10.4 72 0 0.6 1022.2 0.0000 0.0000
00:56 15.4 10.4 72 315 0.3 0.6 1022.3 0.0000 0.0000
01:06 15.3 10.3 72 0 0.6 1022.5 0.0000 0.0000
01:16 15.3 10.3 72 90 0.3 0.6 1022.5 0.0000 0.0000
01:27 15.2 10.4 73 90 0.3 1.1 1022.5 0.0000 0.0000
01:37 15.1 10.3 73 0 0.6 1022.5 0.0000 0.0000
01:47 15.1 10.5 74 0 0.6 1022.2 0.0000 0.0000
01:57 15.1 10.5 74 0 0.6 1022.2 0.0000 0.0000
02:08 15 10.4 74 0 0.6 1022.1 0.0000 0.0000
02:18 15 10.6 75 0 0.6 1022 0.0000 0.0000
02:27 15 10.6 75 0 0.6 1021.9 0.0000 0.0000
02:38 15 10.6 75 0 0.6 1021.9 0.0000 0.0000
02:48 14.9 10.3 74 0 0.6 1021.8 0.0000 0.0000
03:08 14.8 10.2 74 180 0.3 0.6 1021.9 0.0000 0.0000
03:19 14.8 10.2 74 270 0.3 0.6 1021.8 0.0000 0.0000
03:28 14.8 10.4 75 303 0.3 0.6 1021.8 0.0000 0.0000
03:38 14.7 10.3 75 0 0.6 1021.9 0.0000 0.0000
03:59 14.7 10.5 76 0 0.6 1021.7 0.1010 0.1000
04:18 14.6 10.4 76 270 0.3 0.6 1021.7 0.1010 0.1000
04:29 14.6 10.4 76 135 0.3 0.8 1021.7 0.2020 0.2000
04:43 14.5 10.5 77 135 0.3 0.6 1021.6 0.3030 0.3000
04:53 14.4 10.4 77 0 0.6 1021.5 0.2020 0.3000
05:03 14.4 10.6 78 270 0.3 0.6 1021.4 0.2020 0.3000
05:13 14.4 10.6 78 225 0.3 0.6 1021.3 0.2020 0.3000
05:23 14.3 10.5 78 234 0.3 0.6 1021.3 0.1010 0.3000
05:34 14.3 10.5 78 0 0.6 1021.3 0.1010 0.3000
05:44 14.3 10.7 79 225 0.3 0.6 1021.3 0.0000 0.3000
05:54 14.3 10.5 78 0 0.6 1021.2 0.0000 0.3000
06:03 14.2 10.6 79 0 0.8 1021.1 0.0000 0.3000
06:14 14.2 10.6 79 270 0.3 0.6 1021 0.0000 0.3000
06:24 14.1 10.5 79 225 0.3 0.8 1021 0.0000 0.3000
06:34 14.1 10.5 79 0 0.6 1020.9 0.0000 0.3000
06:44 14.1 10.5 79 0 0.6 1020.6 0.0000 0.3000
06:55 14.1 10.5 79 153 0.3 0.6 1020.6 0.0000 0.3000
07:04 14.1 10.5 79 270 0.3 0.6 1020.9 0.0000 0.3000
07:14 14 10.4 79 270 0.3 0.6 1020.6 0.0000 0.3000
07:25 14.1 10.5 79 270 0.3 0.6 1020.5 0.0000 0.3000
07:35 14 10.6 80 270 0.3 0.6 1020.5 0.0000 0.3000
07:45 14 10.6 80 270 0.3 0.6 1020.4 0.0000 0.3000
07:55 14.1 10.7 80 0 0.6 1020.4 0.0000 0.3000
08:05 14.1 10.7 80 236 0.3 0.8 1020.4 0.0000 0.3000
08:11 14.1 10.7 80 225 0.3 0.8 1020.2 0.0000 0.3000
08:21 14.1 10.7 80 270 0.3 0.6 1020.1 0.0000 0.3000
08:31 14.2 10.8 80 0 0.6 1020.2 0.0000 0.3000
08:42 14.3 10.9 80 270 0.3 0.6 1020.2 0.0000 0.3000
08:52 14.3 10.9 80 270 0.3 0.8 1020.1 0.0000 0.3000
09:01 14.3 10.7 79 270 0.3 0.8 1020.2 0.0000 0.3000
09:11 14.4 10.8 79 225 0.3 0.8 1020.1 0.0000 0.3000
09:22 14.5 10.9 79 0 0.6 1020.2 0.0000 0.3000
09:32 14.5 10.9 79 270 0.3 0.8 1020.2 0.0000 0.3000
09:42 14.6 11 79 0 0.6 1020.2 0.0000 0.3000
09:52 14.7 11.1 79 270 0.3 0.6 1020.2 0.0000 0.3000
10:02 14.8 11.2 79 135 0.3 0.8 1020.1 0.0000 0.3000
10:12 15 11.4 79 90 0.3 0.8 1020.2 0.0000 0.3000
10:22 15.2 11.6 79 90 0.3 0.8 1020.1 0.0000 0.3000
10:33 15.3 11.5 78 90 0.3 0.8 1020 0.0000 0.3000
10:43 15.6 11.6 77 270 0.3 0.8 1019.9 0.0000 0.3000
10:53 15.8 11.8 77 270 0.3 0.8 1019.7 0.0000 0.3000
11:03 16 11.8 76 270 0.3 0.8 1019.7 0.0000 0.3000
11:13 16.1 11.7 75 53 0.3 0.6 1019.6 0.0000 0.3000
11:23 16.4 11.8 74 8 0.3 0.6 1019.4 0.0000 0.3000
11:33 16.6 12 74 341 0.3 0.6 1019.2 0.0000 0.3000
11:44 16.8 12.1 74 348 0.3 0.6 1019 0.0000 0.3000
11:54 17 12.1 73 18 0.3 0.6 1018.9 0.0000 0.3000
12:03 17.2 12.3 73 270 0.3 0.8 1018.6 0.0000 0.3000
12:13 17.6 12.5 72 308 0.3 0.8 1018.6 0.0000 0.3000
12:24 17.9 12.8 72 270 0.3 0.6 1018.4 0.0000 0.3000
12:34 18.3 13.2 72 270 0.3 0.8 1018.2 0.0000 0.3000
12:44 19 13.4 70 333 0.3 0.8 1018.1 0.0000 0.3000
12:54 19.5 13.4 68 33 0.3 0.8 1017.7 0.0000 0.3000
13:04 20.1 13.8 67 270 0.3 1.1 1017.6 0.0000 0.3000
13:14 20.4 13.8 66 270 0.3 1.4 1017.4 0.0000 0.3000
13:24 20.6 13.8 65 303 0.3 1.1 1017.3 0.0000 0.3000
13:35 20.7 13.9 65 315 0.3 1.1 1017 0.0000 0.3000
13:45 20.8 14 65 315 0.3 1.1 1016.8 0.0000 0.3000
13:54 20.9 13.8 64 270 0.3 1.1 1016.5 0.0000 0.3000
14:05 20.9 13.6 63 270 0.3 1.1 1016.2 0.0000 0.3000
14:15 20.9 13.8 64 270 0.3 1.1 1015.8 0.0000 0.3000
14:25 20.9 13.8 64 270 0.3 0.8 1015.7 0.0000 0.3000
14:46 21 14.2 65 18 0.3 0.8 1015.2 0.0000 0.3000
14:55 21.1 14.3 65 15 0.3 0.6 1014.9 0.0000 0.3000
15:05 21.4 14.6 65 14 0.3 0.6 1014.5 0.0000 0.3000
15:15 21.6 14.7 65 33 0.3 0.8 1014.2 0.0000 0.3000
15:26 21.8 14.7 64 344 0.3 0.8 1014.1 0.0000 0.3000
15:36 22 14.6 63 11 0.3 0.6 1014 0.0000 0.3000
15:46 22.1 15 64 45 0.3 0.8 1013.6 0.0000 0.3000
15:56 22.1 14.7 63 45 0.3 0.8 1013.5 0.0000 0.3000
16:06 22.2 14.8 63 30 0.3 0.6 1013 0.0000 0.3000
16:16 22.3 15.2 64 29 0.3 0.6 1012.8 0.0000 0.3000
16:26 22.3 15.2 64 36 0.3 0.6 1012.7 0.0000 0.3000
16:37 22.3 15.2 64 35 0.3 0.6 1012.4 0.0000 0.3000
16:47 22.2 15.3 65 0 0.6 1012.5 0.0000 0.3000
16:56 22.1 15.5 66 315 0.3 0.6 1012.4 0.0000 0.3000
17:07 22 15.4 66 0 0.6 1012.3 0.0000 0.3000
17:17 21.9 15.5 67 315 0.3 0.6 1012.1 0.0000 0.3000
17:27 21.8 15.4 67 45 0.3 0.6 1011.9 0.0000 0.3000
17:37 21.7 15.5 68 0 0.6 1011.9 0.0000 0.3000
17:47 21.7 15.8 69 0 0.6 1011.6 0.0000 0.3000
17:57 21.7 15.8 69 270 0.3 0.6 1011.6 0.0000 0.3000
18:07 21.6 15.7 69 0 0.6 1011.1 0.0000 0.3000
18:18 21.6 16.1 71 326 0.3 0.6 1011 0.0000 0.3000
18:28 21.5 16 71 270 0.3 0.8 1010.9 0.0000 0.3000
18:38 21.4 15.9 71 0 0.3 0.6 1010.7 0.0000 0.3000
18:47 21.4 15.9 71 341 0.3 0.6 1010.5 0.0000 0.3000
18:58 21.3 16.1 72 26 0.3 0.6 1010.5 0.0000 0.3000
19:18 21.1 16.1 73 36 0.3 0.6 1009.7 0.0000 0.3000
19:28 21 16 73 0 0.6 1009.8 0.0000 0.3000
19:48 20.7 15.9 74 0 0.6 1010 0.0000 0.3000
19:58 20.6 16 75 56 0.3 0.8 1009.9 0.0000 0.3000
20:09 20.4 15.8 75 333 0.3 0.8 1009.9 0.0000 0.3000
20:19 20.2 15.6 75 270 0.3 1.4 1010.1 0.0000 0.3000
20:29 20.2 15.6 75 315 0.3 1.7 1010 0.0000 0.3000
20:39 20.1 15.5 75 45 0.3 2.2 1009.8 0.0000 0.3000
20:49 20 15.4 75 90 0.3 1.7 1009.7 0.0000 0.3000
20:59 20 15.4 75 303 0.3 0.8 1009.9 0.0000 0.3000
21:09 19.9 15.3 75 315 0.3 1.1 1010.1 0.0000 0.3000
21:19 19.9 15.3 75 45 0.3 1.4 1010.2 0.0000 0.3000
21:30 19.9 15.3 75 270 0.6 1.1 1009.9 0.0000 0.3000
21:39 19.8 15.2 75 30 0.3 0.6 1009.6 0.0000 0.3000
21:49 19.8 15.2 75 303 0.3 0.6 1009.2 0.0000 0.3000
22:00 19.8 15.5 76 270 0.3 1.4 1009.3 0.0000 0.3000
22:10 19.7 15.4 76 45 0.3 0.8 1009.3 0.0000 0.3000
22:20 19.7 15.6 77 315 0.3 0.8 1010.1 0.0000 0.3000
22:30 19.6 15.5 77 270 0.6 1.4 1010 0.0000 0.3000
22:40 19.6 15.5 77 90 0.3 1.1 1009.9 0.0000 0.3000
22:50 19.5 15.4 77 26 0.3 0.6 1010.1 0.2020 0.5000
23:00 19.5 15 75 270 0.8 3.6 1011.4 0.2020 0.5000
23:11 19.6 13.1 66 36 0.8 3.1 1011.4 0.2020 0.5000
23:21 19.4 12.2 63 90 0.8 2.2 1012 0.2020 0.5000
23:31 19.2 12 63 0.6 2.5 1013.8 0.2020 0.5000
23:40 18.9 11.9 64 270 1.1 3.6 1014.4 0.2020 0.6000
23:51 18.5 12.5 68 239 0.8 2.8 1015.6 0.1010 0.6000

DAY STATISTIC

2018-09-23
TEMPERATURE
AVERAGE
17.7
HIGH
22.3
16:16
LOW
14.0
07:14
PRESSURE
AVERAGE
1016.9
HIGH
1022.5
01:06
LOW
1009.2
21:49
DEWPOINT
AVERAGE
12.7
HIGH
16.1
18:18
LOW
10.2
00:05
HUMIDITY
AVERAGE
73
HIGH
80
07:35
LOW
63
14:05
WIND SPEED
AVERAGE
0.3
HIGH
1.1
23:40
WIND GUST
AVERAGE
0.8
HIGH
3.6
23:00
WIND DIRECTION
PREVAILING
W
26.5%
N
8.1
NE
14.0
E
5.9
SE
2.9
S
0.7
SW
6.6
W
26.5
NW
11.8
PRECIPITATION
RAIN HOUR
0.3
RAIN DAY
0.6
TEMPERATURE (°C)
LOW
14.0
HIGH
22.3
AVERAGE
17.7
PRESSURE (hpa)
LOW
1009.2
HIGH
1022.5
AVERAGE
1016.9
DEVICE